createdAt,value
2022-09-13T00:00:15.759Z,8.48
2022-09-13T00:05:17.469Z,8.20
2022-09-13T00:10:19.417Z,8.65
2022-09-13T00:15:21.393Z,7.85
2022-09-13T00:20:23.276Z,9.30
2022-09-13T00:25:24.924Z,8.07
2022-09-13T00:30:26.581Z,8.55
2022-09-13T00:35:28.254Z,8.38
2022-09-13T00:40:30.644Z,8.85
2022-09-13T00:45:32.511Z,9.52
2022-09-13T00:50:38.615Z,10.13
2022-09-13T00:55:57.416Z,10.65
2022-09-13T01:01:02.261Z,9.85
2022-09-13T01:06:17.578Z,9.73
2022-09-13T01:11:55.577Z,9.50
2022-09-13T01:16:57.410Z,9.15
2022-09-13T01:22:23.670Z,9.02
2022-09-13T01:27:53.864Z,8.10
2022-09-13T01:33:21.854Z,9.40
2022-09-13T01:38:53.602Z,8.13
2022-09-13T01:44:13.983Z,8.00
2022-09-13T01:49:21.717Z,10.10
2022-09-13T01:54:43.851Z,9.38
2022-09-13T01:59:50.657Z,7.60
2022-09-13T02:04:59.104Z,7.95
2022-09-13T02:10:07.430Z,10.13
2022-09-13T02:15:22.163Z,8.60
2022-09-13T02:20:30.909Z,7.35
2022-09-13T02:25:35.999Z,7.28
2022-09-13T02:30:41.642Z,7.18
2022-09-13T02:36:01.705Z,7.85
2022-09-13T02:41:19.249Z,7.82
2022-09-13T02:46:47.181Z,11.45
2022-09-13T02:52:22.427Z,9.18
2022-09-13T02:57:31.881Z,9.35
2022-09-13T03:02:34.791Z,8.18
2022-09-13T03:07:36.538Z,9.45
2022-09-13T03:13:22.736Z,8.00
2022-09-13T03:19:00.034Z,7.40
2022-09-13T03:24:12.398Z,11.15
2022-09-13T03:29:25.956Z,9.45
2022-09-13T03:34:48.062Z,9.93
2022-09-13T03:40:01.797Z,7.55
2022-09-13T03:45:06.155Z,6.80
2022-09-13T03:50:09.049Z,7.25
2022-09-13T03:55:11.216Z,8.95
2022-09-13T04:00:14.348Z,8.82
2022-09-13T04:05:15.973Z,10.93
2022-09-13T04:10:17.622Z,9.38
2022-09-13T04:15:19.287Z,10.07
2022-09-13T04:20:21.077Z,9.30
2022-09-13T04:25:23.409Z,8.07
2022-09-13T04:30:25.491Z,7.88
2022-09-13T04:35:27.360Z,8.20
2022-09-13T04:40:29.745Z,11.10
2022-09-13T04:45:31.471Z,12.15
2022-09-13T04:50:33.117Z,9.00
2022-09-13T04:55:36.659Z,10.75
2022-09-13T05:00:38.296Z,9.43
2022-09-13T05:05:40.040Z,11.80
2022-09-13T05:10:41.709Z,9.48
2022-09-13T05:15:43.383Z,13.45
2022-09-13T05:20:45.037Z,10.55
2022-09-13T05:25:52.850Z,10.15
2022-09-13T05:30:59.796Z,9.93
2022-09-13T05:36:01.908Z,11.68
2022-09-13T05:41:05.407Z,10.20
2022-09-13T05:46:18.399Z,11.20
2022-09-13T05:51:22.212Z,10.13
2022-09-13T05:56:28.955Z,12.50
2022-09-13T06:01:30.811Z,14.32
2022-09-13T06:06:32.478Z,15.18
2022-09-13T06:11:34.285Z,13.20
2022-09-13T06:16:36.759Z,11.13
2022-09-13T06:21:38.550Z,8.88
2022-09-13T06:26:40.191Z,7.95
2022-09-13T06:31:45.072Z,8.18
2022-09-13T06:36:46.861Z,9.57
2022-09-13T06:41:48.597Z,11.02
2022-09-13T06:46:50.320Z,9.85
2022-09-13T06:51:52.031Z,10.77
2022-09-13T06:56:53.675Z,11.75
2022-09-13T07:01:55.507Z,12.65
2022-09-13T07:06:58.395Z,8.82
2022-09-13T07:12:00.616Z,9.60
2022-09-13T07:17:02.325Z,11.70
2022-09-13T07:22:04.862Z,13.00
2022-09-13T07:27:06.545Z,12.45
2022-09-13T07:32:08.191Z,10.65
2022-09-13T07:37:09.839Z,16.48
2022-09-13T07:42:11.471Z,13.75
2022-09-13T07:47:13.146Z,9.18
2022-09-13T07:52:14.777Z,12.98
2022-09-13T07:57:16.376Z,11.00
2022-09-13T08:02:18.416Z,9.48
2022-09-13T08:07:20.140Z,9.60
2022-09-13T08:12:21.791Z,11.75
2022-09-13T08:17:23.454Z,9.48
2022-09-13T08:22:25.156Z,10.68
2022-09-13T08:27:28.504Z,14.05
2022-09-13T08:32:30.172Z,10.25
2022-09-13T08:37:34.264Z,9.48
2022-09-13T08:42:47.988Z,8.52
2022-09-13T08:47:56.509Z,10.13
2022-09-13T08:53:16.977Z,9.98
2022-09-13T08:58:34.692Z,11.32
2022-09-13T09:03:46.679Z,7.47
2022-09-13T09:09:07.303Z,9.70
2022-09-13T09:14:37.405Z,9.77
2022-09-13T09:19:43.438Z,11.50
2022-09-13T09:24:49.323Z,7.43
2022-09-13T09:29:54.787Z,7.32
2022-09-13T09:35:05.901Z,7.88
2022-09-13T09:40:13.533Z,12.63
2022-09-13T09:45:30.178Z,9.23
2022-09-13T09:50:38.309Z,8.65
2022-09-13T09:55:46.872Z,10.63
2022-09-13T10:00:57.040Z,6.97
2022-09-13T10:06:19.166Z,6.53
2022-09-13T10:11:22.927Z,5.75
2022-09-13T10:16:30.135Z,4.80
2022-09-13T10:21:31.844Z,4.32
2022-09-13T10:26:34.369Z,4.53
2022-09-13T10:31:45.305Z,4.32
2022-09-13T10:37:00.353Z,3.88
2022-09-13T10:42:10.143Z,5.95
2022-09-13T10:47:18.670Z,4.40
2022-09-13T10:52:44.486Z,4.00
2022-09-13T10:57:50.811Z,3.80
2022-09-13T11:03:07.546Z,3.85
2022-09-13T11:08:33.114Z,4.50
2022-09-13T11:13:45.685Z,4.95
2022-09-13T11:18:58.319Z,4.05
2022-09-13T11:24:26.481Z,4.20
2022-09-13T11:29:43.938Z,5.35
2022-09-13T11:35:12.172Z,4.40
2022-09-13T11:40:58.348Z,5.90
2022-09-13T11:46:48.235Z,4.00
2022-09-13T11:52:30.090Z,4.15
2022-09-13T11:57:46.028Z,5.13
2022-09-13T12:03:11.684Z,4.55
2022-09-13T12:08:19.382Z,4.05
2022-09-13T12:13:27.557Z,6.25
2022-09-13T12:18:31.042Z,4.68
2022-09-13T12:23:42.695Z,6.30
2022-09-13T12:28:59.737Z,7.60
2022-09-13T12:34:06.468Z,5.22
2022-09-13T12:39:31.576Z,6.00
2022-09-13T12:44:50.339Z,3.35
2022-09-13T12:50:44.211Z,3.03
2022-09-13T12:56:13.549Z,5.53
2022-09-13T13:01:25.331Z,4.93
2022-09-13T13:06:36.791Z,3.97
2022-09-13T13:11:45.967Z,3.38
2022-09-13T13:16:49.675Z,3.00
2022-09-13T13:21:51.548Z,4.15
2022-09-13T13:26:57.755Z,6.20
2022-09-13T13:32:04.016Z,2.53
2022-09-13T13:37:26.459Z,4.57
2022-09-13T13:42:35.383Z,4.32
2022-09-13T13:47:41.934Z,3.65
2022-09-13T13:52:52.637Z,2.50
2022-09-13T13:58:24.669Z,2.55
2022-09-13T14:03:38.456Z,2.80
2022-09-13T14:09:04.762Z,6.25
2022-09-13T14:14:28.382Z,3.80
2022-09-13T14:19:34.605Z,2.80
2022-09-13T14:24:38.277Z,3.50
2022-09-13T14:29:40.079Z,2.65
2022-09-13T14:34:55.246Z,2.60
2022-09-13T14:39:59.447Z,3.55
2022-09-13T14:45:01.523Z,5.55
2022-09-13T14:50:11.481Z,5.30
2022-09-13T14:55:18.715Z,3.08
2022-09-13T15:00:23.502Z,2.35
2022-09-13T15:05:29.613Z,4.03
2022-09-13T15:10:43.842Z,4.97
2022-09-13T15:15:45.863Z,3.38
2022-09-13T15:21:16.241Z,3.28
2022-09-13T15:26:25.459Z,5.53
2022-09-13T15:31:29.614Z,5.35
2022-09-13T15:36:34.100Z,4.95
2022-09-13T15:41:40.604Z,9.23
2022-09-13T15:46:52.914Z,8.05
2022-09-13T15:51:56.748Z,8.25
2022-09-13T15:56:58.932Z,6.03
2022-09-13T16:02:03.057Z,8.93
2022-09-13T16:07:04.804Z,7.82
2022-09-13T16:12:06.618Z,8.38
2022-09-13T16:17:20.518Z,8.32
2022-09-13T16:22:23.115Z,7.85
2022-09-13T16:27:28.713Z,6.78
2022-09-13T16:32:32.439Z,5.38
2022-09-13T16:37:34.506Z,10.18
2022-09-13T16:42:37.015Z,7.50
2022-09-13T16:47:39.409Z,5.60
2022-09-13T16:52:41.254Z,7.65
2022-09-13T16:57:45.560Z,6.43
2022-09-13T17:02:47.801Z,10.73
2022-09-13T17:07:52.061Z,7.03
2022-09-13T17:12:53.726Z,7.25
2022-09-13T17:17:55.661Z,7.40
2022-09-13T17:22:57.328Z,9.95
2022-09-13T17:27:58.988Z,6.30
2022-09-13T17:33:00.656Z,6.68
2022-09-13T17:38:03.479Z,7.28
2022-09-13T17:43:05.175Z,9.80
2022-09-13T17:48:06.798Z,11.18
2022-09-13T17:53:08.431Z,7.40
2022-09-13T17:58:10.052Z,7.28
2022-09-13T18:03:11.943Z,9.45
2022-09-13T18:08:13.733Z,6.60
2022-09-13T18:13:15.547Z,6.70
2022-09-13T18:18:17.172Z,6.80
2022-09-13T18:23:19.065Z,8.52
2022-09-13T18:28:20.704Z,8.07
2022-09-13T18:33:23.418Z,7.82
2022-09-13T18:38:27.027Z,7.43
2022-09-13T18:43:28.868Z,8.50
2022-09-13T18:48:39.533Z,7.93
2022-09-13T18:53:41.555Z,8.57
2022-09-13T18:58:44.395Z,9.13
2022-09-13T19:04:10.419Z,8.25
2022-09-13T19:09:14.385Z,7.65
2022-09-13T19:14:25.852Z,9.38
2022-09-13T19:19:27.613Z,9.63
2022-09-13T19:24:31.194Z,8.32
2022-09-13T19:29:33.094Z,12.50
2022-09-13T19:34:34.831Z,11.43
2022-09-13T19:39:36.568Z,9.95
2022-09-13T19:44:38.443Z,11.63
2022-09-13T19:49:40.396Z,12.65
2022-09-13T19:54:42.215Z,11.05
2022-09-13T19:59:44.293Z,11.20
2022-09-13T20:04:48.203Z,11.32
2022-09-13T20:09:50.160Z,13.23
2022-09-13T20:14:51.960Z,11.27
2022-09-13T20:19:53.748Z,11.40
2022-09-13T20:24:55.503Z,12.23
2022-09-13T20:29:57.243Z,11.68
2022-09-13T20:34:59.000Z,13.23
2022-09-13T20:40:02.306Z,13.35
2022-09-13T20:45:04.602Z,12.25
2022-09-13T20:50:06.902Z,11.90
2022-09-13T20:55:09.187Z,11.10
2022-09-13T21:00:12.440Z,11.30
2022-09-13T21:05:14.219Z,9.88
2022-09-13T21:10:16.280Z,11.02
2022-09-13T21:15:19.231Z,9.88
2022-09-13T21:20:20.925Z,11.88
2022-09-13T21:25:22.620Z,10.80
2022-09-13T21:30:24.292Z,11.85
2022-09-13T21:35:25.943Z,10.52
2022-09-13T21:40:27.742Z,13.68
2022-09-13T21:45:30.021Z,11.63
2022-09-13T21:50:32.173Z,13.85
2022-09-13T21:55:39.661Z,10.70
2022-09-13T22:00:41.324Z,11.18
2022-09-13T22:05:43.093Z,11.07
2022-09-13T22:10:44.749Z,10.18
2022-09-13T22:15:46.415Z,12.45
2022-09-13T22:20:48.051Z,10.80
2022-09-13T22:25:51.996Z,10.05
2022-09-13T22:30:53.702Z,11.07
2022-09-13T22:36:04.031Z,11.27
2022-09-13T22:41:09.861Z,12.07
2022-09-13T22:46:21.237Z,10.05
2022-09-13T22:51:23.736Z,11.10
2022-09-13T22:56:30.915Z,9.73
2022-09-13T23:01:33.105Z,12.27
2022-09-13T23:06:35.526Z,11.80
2022-09-13T23:11:38.949Z,12.30
2022-09-13T23:16:46.169Z,10.75
2022-09-13T23:21:48.620Z,10.60
2022-09-13T23:26:50.540Z,13.90
2022-09-13T23:31:52.547Z,11.35
2022-09-13T23:36:54.899Z,11.32
2022-09-13T23:41:57.092Z,10.80
2022-09-13T23:46:59.146Z,13.68
2022-09-13T23:52:00.803Z,10.77
2022-09-13T23:57:02.450Z,11.82
